createdAt,value
2017-05-12T00:01:48.738Z,3.88
2017-05-12T00:04:15.922Z,4.62
2017-05-12T00:06:43.115Z,5.40
2017-05-12T00:09:16.085Z,4.52
2017-05-12T00:11:44.190Z,5.42
2017-05-12T00:14:11.404Z,5.06
2017-05-12T00:16:38.586Z,5.74
2017-05-12T00:19:05.761Z,4.52
2017-05-12T00:21:32.970Z,4.86
2017-05-12T00:24:00.151Z,4.72
2017-05-12T00:26:27.330Z,5.48
2017-05-12T00:28:54.526Z,5.16
2017-05-12T00:31:21.710Z,5.28
2017-05-12T00:33:48.899Z,5.06
2017-05-12T00:36:16.132Z,5.12
2017-05-12T00:38:43.351Z,4.54
2017-05-12T00:41:10.548Z,5.22
2017-05-12T00:43:37.734Z,5.14
2017-05-12T00:46:04.905Z,5.10
2017-05-12T00:48:32.091Z,5.62
2017-05-12T00:51:00.115Z,7.62
2017-05-12T00:53:27.277Z,5.34
2017-05-12T00:55:54.496Z,5.52
2017-05-12T00:58:21.681Z,5.54
2017-05-12T01:00:48.858Z,5.32
2017-05-12T01:03:16.990Z,7.44
2017-05-12T01:05:44.163Z,6.20
2017-05-12T01:08:12.012Z,6.64
2017-05-12T01:10:39.227Z,6.42
2017-05-12T01:13:06.390Z,6.70
2017-05-12T01:15:34.586Z,5.60
2017-05-12T01:18:01.758Z,6.70
2017-05-12T01:20:28.979Z,6.20
2017-05-12T01:22:56.160Z,5.86
2017-05-12T01:25:28.162Z,5.90
2017-05-12T01:27:56.152Z,6.24
2017-05-12T01:30:23.346Z,6.80
2017-05-12T01:32:50.550Z,5.68
2017-05-12T01:35:23.252Z,5.48
2017-05-12T01:37:51.138Z,6.68
2017-05-12T01:40:18.325Z,7.12
2017-05-12T01:42:46.212Z,6.06
2017-05-12T01:45:13.406Z,6.54
2017-05-12T01:47:42.458Z,6.78
2017-05-12T01:50:09.662Z,7.28
2017-05-12T01:52:39.290Z,6.30
2017-05-12T01:55:09.266Z,9.54
2017-05-12T01:57:36.466Z,7.38
2017-05-12T02:00:03.626Z,6.60
2017-05-12T02:02:31.322Z,6.98
2017-05-12T02:04:58.501Z,7.20
2017-05-12T02:07:25.714Z,7.00
2017-05-12T02:09:54.063Z,7.28
2017-05-12T02:12:26.035Z,7.42
2017-05-12T02:14:53.206Z,8.62
2017-05-12T02:17:20.395Z,8.32
2017-05-12T02:19:47.576Z,7.38
2017-05-12T02:22:14.740Z,8.42
2017-05-12T02:24:41.954Z,9.00
2017-05-12T02:27:11.163Z,8.86
2017-05-12T02:29:38.342Z,8.60
2017-05-12T02:32:05.529Z,9.50
2017-05-12T02:34:33.321Z,10.10
2017-05-12T02:37:01.236Z,9.94
2017-05-12T02:39:28.435Z,10.24
2017-05-12T02:41:57.634Z,10.24
2017-05-12T02:44:24.818Z,12.02
2017-05-12T02:46:52.003Z,10.48
2017-05-12T02:49:20.857Z,10.20
2017-05-12T02:51:48.055Z,12.08
2017-05-12T02:54:15.238Z,12.44
2017-05-12T02:56:42.439Z,11.46
2017-05-12T02:59:09.630Z,11.52
2017-05-12T03:01:36.849Z,10.60
2017-05-12T03:04:04.050Z,11.60
2017-05-12T03:06:32.182Z,11.72
2017-05-12T03:08:59.382Z,10.38
2017-05-12T03:11:26.562Z,11.80
2017-05-12T03:13:54.378Z,11.88
2017-05-12T03:16:21.584Z,11.60
2017-05-12T03:18:50.677Z,11.82
2017-05-12T03:21:17.885Z,11.32
2017-05-12T03:23:45.687Z,13.22
2017-05-12T03:26:13.794Z,12.76
2017-05-12T03:28:40.971Z,12.96
2017-05-12T03:31:08.718Z,12.12
2017-05-12T03:33:37.930Z,12.78
2017-05-12T03:36:05.110Z,12.90
2017-05-12T03:38:32.333Z,12.32
2017-05-12T03:41:02.167Z,13.42
2017-05-12T03:43:29.354Z,12.44
2017-05-12T03:45:56.550Z,12.38
2017-05-12T03:48:24.390Z,13.38
2017-05-12T03:50:51.610Z,13.38
2017-05-12T03:53:18.799Z,14.14
2017-05-12T03:55:45.988Z,14.72
2017-05-12T03:58:13.223Z,14.30
2017-05-12T04:00:43.198Z,15.08
2017-05-12T04:03:11.169Z,14.30
2017-05-12T04:05:39.360Z,14.06
2017-05-12T04:08:07.363Z,14.36
2017-05-12T04:10:34.594Z,12.66
2017-05-12T04:13:02.566Z,13.34
2017-05-12T04:15:29.777Z,13.66
2017-05-12T04:17:56.976Z,14.18
2017-05-12T04:20:27.363Z,13.78
2017-05-12T04:22:54.697Z,14.32
2017-05-12T04:25:21.896Z,14.68
2017-05-12T04:27:49.120Z,14.60
2017-05-12T04:30:16.896Z,13.62
2017-05-12T04:32:44.093Z,14.86
2017-05-12T04:35:11.291Z,14.52
2017-05-12T04:37:39.766Z,16.68
2017-05-12T04:40:07.002Z,16.86
2017-05-12T04:42:34.189Z,16.54
2017-05-12T04:45:01.933Z,14.30
2017-05-12T04:47:29.132Z,14.72
2017-05-12T04:49:56.722Z,15.48
2017-05-12T04:52:23.960Z,14.72
2017-05-12T04:54:51.140Z,15.08
2017-05-12T04:57:19.143Z,16.02
2017-05-12T04:59:47.356Z,14.54
2017-05-12T05:02:14.566Z,15.68
2017-05-12T05:04:42.628Z,14.94
2017-05-12T05:07:09.806Z,15.86
2017-05-12T05:09:38.954Z,15.74
2017-05-12T05:12:06.150Z,15.46
2017-05-12T05:14:33.333Z,15.60
2017-05-12T05:17:00.545Z,14.90
2017-05-12T05:19:27.715Z,16.62
2017-05-12T05:21:54.902Z,14.58
2017-05-12T05:24:22.103Z,14.70
2017-05-12T05:26:49.301Z,15.82
2017-05-12T05:29:16.521Z,14.58
2017-05-12T05:31:43.715Z,16.22
2017-05-12T05:34:10.902Z,15.78
2017-05-12T05:36:38.182Z,15.98
2017-05-12T05:39:05.377Z,16.54
2017-05-12T05:41:32.614Z,16.14
2017-05-12T05:43:59.830Z,15.56
2017-05-12T05:46:27.051Z,16.00
2017-05-12T05:48:54.287Z,17.86
2017-05-12T05:51:21.622Z,15.56
2017-05-12T05:53:48.880Z,16.36
2017-05-12T05:56:16.110Z,16.02
2017-05-12T05:58:43.323Z,18.08
2017-05-12T06:01:10.545Z,16.88
2017-05-12T06:03:39.655Z,15.88
2017-05-12T06:06:06.860Z,16.54
2017-05-12T06:08:34.072Z,16.48
2017-05-12T06:11:01.295Z,16.68
2017-05-12T06:13:28.538Z,17.70
2017-05-12T06:16:01.349Z,17.26
2017-05-12T06:18:28.585Z,16.68
2017-05-12T06:20:55.801Z,16.68
2017-05-12T06:23:23.075Z,17.60
2017-05-12T06:25:50.266Z,18.14
2017-05-12T06:28:18.359Z,17.72
2017-05-12T06:30:45.623Z,16.84
2017-05-12T06:33:12.835Z,17.00
2017-05-12T06:35:40.103Z,19.08
2017-05-12T06:38:07.395Z,17.80
2017-05-12T06:40:34.576Z,17.64
2017-05-12T06:43:01.855Z,17.58
2017-05-12T06:45:29.042Z,17.86
2017-05-12T06:47:56.230Z,18.02
2017-05-12T06:50:23.443Z,17.82
2017-05-12T06:52:50.636Z,17.84
2017-05-12T06:55:17.847Z,18.58
2017-05-12T06:57:45.039Z,17.76
2017-05-12T07:00:14.233Z,17.92
2017-05-12T07:02:41.472Z,19.28
2017-05-12T07:05:08.688Z,19.26
2017-05-12T07:07:35.911Z,19.52
2017-05-12T07:10:03.382Z,18.76
2017-05-12T07:12:30.566Z,19.48
2017-05-12T07:14:58.720Z,20.72
2017-05-12T07:17:25.911Z,19.78
2017-05-12T07:19:53.122Z,18.98
2017-05-12T07:22:20.326Z,21.22
2017-05-12T07:24:47.514Z,19.80
2017-05-12T07:27:14.768Z,19.36
2017-05-12T07:29:41.958Z,20.30
2017-05-12T07:32:11.129Z,21.04
2017-05-12T07:34:38.339Z,21.46
2017-05-12T07:37:05.523Z,20.12
2017-05-12T07:39:32.743Z,21.48
2017-05-12T07:42:01.889Z,20.84
2017-05-12T07:44:29.118Z,20.06
2017-05-12T07:46:56.329Z,22.50
2017-05-12T07:49:23.504Z,21.96
2017-05-12T07:51:51.660Z,20.26
2017-05-12T07:54:19.045Z,20.82
2017-05-12T07:56:46.272Z,20.56
2017-05-12T07:59:13.542Z,21.48
2017-05-12T08:01:42.711Z,20.20
2017-05-12T08:04:09.954Z,21.92
2017-05-12T08:06:37.139Z,23.08
2017-05-12T08:09:04.359Z,20.18
2017-05-12T08:11:31.617Z,21.88
2017-05-12T08:13:58.870Z,22.62
2017-05-12T08:16:26.091Z,21.80
2017-05-12T08:18:55.984Z,22.68
2017-05-12T08:21:23.203Z,22.60
2017-05-12T08:23:50.469Z,21.92
2017-05-12T08:28:57.205Z,23.02
2017-05-12T08:31:24.422Z,23.44
2017-05-12T08:33:51.610Z,25.52
2017-05-12T08:36:19.480Z,23.70
2017-05-12T08:38:46.737Z,24.08
2017-05-12T08:41:13.938Z,24.82
2017-05-12T08:43:41.175Z,23.36
2017-05-12T08:46:08.377Z,22.40
2017-05-12T08:48:35.604Z,23.64
2017-05-12T08:51:02.844Z,23.24
2017-05-12T08:53:30.078Z,21.64
2017-05-12T08:55:57.263Z,22.84
2017-05-12T08:58:24.514Z,22.18
2017-05-12T09:00:51.698Z,22.48
2017-05-12T09:03:18.989Z,21.58
2017-05-12T09:05:47.198Z,22.70
2017-05-12T09:08:14.419Z,22.04
2017-05-12T09:10:41.605Z,22.72
2017-05-12T09:13:12.404Z,21.92
2017-05-12T09:15:39.655Z,22.68
2017-05-12T09:18:06.846Z,21.46
2017-05-12T09:20:36.026Z,23.28
2017-05-12T09:23:03.227Z,20.74
2017-05-12T09:25:30.414Z,22.20
2017-05-12T09:27:58.634Z,23.44
2017-05-12T09:30:25.803Z,22.26
2017-05-12T09:32:53.000Z,22.54
2017-05-12T09:35:20.199Z,21.38
2017-05-12T09:37:47.385Z,21.44
2017-05-12T09:40:15.458Z,22.76
2017-05-12T09:42:42.701Z,21.02
2017-05-12T09:45:09.963Z,20.88
2017-05-12T09:47:37.171Z,20.76
2017-05-12T09:50:04.366Z,20.58
2017-05-12T09:52:31.635Z,19.86
2017-05-12T09:54:59.763Z,20.20
2017-05-12T09:57:26.951Z,22.38
2017-05-12T09:59:54.189Z,22.32
2017-05-12T10:02:21.378Z,20.06
2017-05-12T10:04:48.590Z,22.98
2017-05-12T10:07:16.574Z,21.98
2017-05-12T10:09:43.811Z,22.34
2017-05-12T10:12:11.058Z,19.84
2017-05-12T10:14:38.307Z,21.66
2017-05-12T10:17:05.928Z,21.30
2017-05-12T10:19:33.119Z,21.22
2017-05-12T10:22:00.297Z,21.98
2017-05-12T10:24:27.557Z,20.72
2017-05-12T10:26:54.755Z,20.48
2017-05-12T10:29:21.983Z,20.62
2017-05-12T10:31:49.189Z,20.34
2017-05-12T10:34:16.406Z,20.12
2017-05-12T10:36:43.642Z,20.36
2017-05-12T10:39:10.825Z,19.80
2017-05-12T10:41:38.044Z,20.46
2017-05-12T10:44:05.236Z,19.00
2017-05-12T10:46:32.449Z,20.88
2017-05-12T10:48:59.666Z,19.64
2017-05-12T10:51:26.867Z,18.48
2017-05-12T10:53:54.097Z,19.72
2017-05-12T10:56:21.284Z,20.24
2017-05-12T10:58:48.979Z,19.60
2017-05-12T11:01:16.224Z,21.24
2017-05-12T11:03:43.486Z,19.08
2017-05-12T11:06:10.815Z,21.06
2017-05-12T11:08:38.002Z,19.92
2017-05-12T11:11:10.096Z,19.26
2017-05-12T11:13:37.303Z,20.62
2017-05-12T11:16:04.582Z,20.68
2017-05-12T11:18:31.806Z,20.44
2017-05-12T11:20:59.034Z,20.56
2017-05-12T11:23:26.317Z,19.90
2017-05-12T11:25:53.518Z,20.10
2017-05-12T11:28:20.691Z,18.62
2017-05-12T11:30:47.907Z,18.30
2017-05-12T11:33:15.260Z,19.50
2017-05-12T11:35:42.610Z,19.92
2017-05-12T11:38:09.816Z,19.82
2017-05-12T11:40:37.036Z,18.62
2017-05-12T11:43:04.247Z,17.76
2017-05-12T11:45:31.418Z,17.48
2017-05-12T11:47:58.684Z,17.44
2017-05-12T11:50:25.871Z,17.10
2017-05-12T11:52:53.048Z,17.34
2017-05-12T11:55:20.300Z,16.44
2017-05-12T11:57:47.486Z,16.50
2017-05-12T12:00:14.836Z,18.28
2017-05-12T12:02:42.968Z,16.60
2017-05-12T12:05:10.171Z,18.04
2017-05-12T12:07:37.427Z,16.60
2017-05-12T12:10:04.635Z,17.26
2017-05-12T12:12:31.971Z,18.62
2017-05-12T12:14:59.162Z,18.12
2017-05-12T12:17:26.397Z,18.14
2017-05-12T12:19:54.823Z,15.94
2017-05-12T12:22:21.994Z,17.26
2017-05-12T12:24:49.246Z,16.92
2017-05-12T12:27:16.606Z,16.96
2017-05-12T12:29:43.900Z,17.18
2017-05-12T12:32:11.161Z,17.24
2017-05-12T12:34:38.421Z,16.88
2017-05-12T12:37:06.551Z,17.06
2017-05-12T12:39:34.630Z,17.84
2017-05-12T12:42:01.847Z,16.42
2017-05-12T12:44:29.050Z,18.96
2017-05-12T12:46:56.268Z,18.50
2017-05-12T12:49:23.519Z,17.58
2017-05-12T12:51:50.728Z,18.00
2017-05-12T12:54:18.946Z,18.16
2017-05-12T12:56:46.318Z,17.00
2017-05-12T12:59:13.614Z,18.40
2017-05-12T13:01:40.837Z,17.02
2017-05-12T13:04:08.056Z,17.76
2017-05-12T13:06:35.276Z,18.02
2017-05-12T13:09:07.248Z,17.28
2017-05-12T13:11:34.448Z,16.82
2017-05-12T13:14:01.662Z,17.30
2017-05-12T13:16:29.771Z,17.06
2017-05-12T13:18:56.994Z,17.54
2017-05-12T13:21:24.315Z,15.80
2017-05-12T13:23:51.491Z,15.52
2017-05-12T13:26:22.472Z,16.36
2017-05-12T13:28:49.823Z,15.86
2017-05-12T13:31:21.446Z,16.26
2017-05-12T13:33:49.895Z,15.78
2017-05-12T13:36:17.094Z,17.94
2017-05-12T13:38:44.422Z,15.70
2017-05-12T13:41:11.744Z,18.14
2017-05-12T13:43:38.966Z,17.34
2017-05-12T13:46:06.244Z,17.24
2017-05-12T13:48:33.499Z,17.04
2017-05-12T13:51:00.718Z,17.16
2017-05-12T13:53:27.927Z,16.04
2017-05-12T13:55:55.107Z,15.90
2017-05-12T13:58:22.330Z,16.90
2017-05-12T14:00:49.519Z,15.04
2017-05-12T14:03:16.740Z,15.86
2017-05-12T14:05:43.975Z,17.12
2017-05-12T14:08:11.180Z,17.52
2017-05-12T14:10:38.995Z,16.64
2017-05-12T14:13:06.240Z,15.86
2017-05-12T14:15:33.469Z,15.60
2017-05-12T14:18:01.396Z,15.20
2017-05-12T14:20:31.958Z,14.76
2017-05-12T14:22:59.265Z,15.04
2017-05-12T14:25:30.826Z,15.94
2017-05-12T14:27:58.058Z,13.74
2017-05-12T14:30:26.243Z,13.52
2017-05-12T14:32:53.442Z,12.84
2017-05-12T14:35:21.450Z,14.12
2017-05-12T14:37:48.674Z,14.22
2017-05-12T14:40:16.616Z,13.12
2017-05-12T14:42:43.807Z,14.58
2017-05-12T14:45:11.628Z,14.04
2017-05-12T14:47:38.849Z,14.94
2017-05-12T14:50:08.134Z,14.82
2017-05-12T14:52:35.456Z,12.22
2017-05-12T14:55:09.287Z,13.34
2017-05-12T14:57:36.572Z,13.94
2017-05-12T15:00:03.781Z,13.68
2017-05-12T15:02:43.266Z,15.54
2017-05-12T15:05:10.502Z,14.78
2017-05-12T15:07:37.822Z,13.78
2017-05-12T15:10:05.039Z,13.62
2017-05-12T15:12:32.274Z,14.00
2017-05-12T15:14:59.581Z,14.00
2017-05-12T15:17:30.482Z,12.74
2017-05-12T15:20:00.339Z,12.32
2017-05-12T15:22:28.042Z,13.46
2017-05-12T15:24:58.794Z,12.66
2017-05-12T15:27:29.465Z,12.56
2017-05-12T15:30:02.937Z,12.96
2017-05-12T15:32:30.179Z,11.86
2017-05-12T15:34:58.090Z,10.08
2017-05-12T15:37:27.585Z,10.38
2017-05-12T15:39:55.817Z,8.92
2017-05-12T15:42:23.079Z,11.00
2017-05-12T15:44:58.659Z,11.16
2017-05-12T15:47:25.846Z,11.00
2017-05-12T15:49:53.924Z,9.88
2017-05-12T15:52:23.169Z,9.38
2017-05-12T15:54:51.205Z,8.40
2017-05-12T15:57:18.997Z,8.88
2017-05-12T15:59:46.200Z,10.06
2017-05-12T16:02:14.212Z,7.32
2017-05-12T16:04:42.356Z,9.12
2017-05-12T16:07:10.428Z,7.12
2017-05-12T16:09:37.731Z,9.84
2017-05-12T16:12:04.923Z,8.36
2017-05-12T16:14:32.166Z,8.78
2017-05-12T16:17:16.549Z,9.18
2017-05-12T16:19:53.282Z,10.58
2017-05-12T16:22:20.526Z,12.62
2017-05-12T16:24:51.859Z,12.82
2017-05-12T16:27:22.775Z,12.88
2017-05-12T16:29:50.896Z,14.06
2017-05-12T16:32:21.343Z,13.30
2017-05-12T16:34:48.591Z,13.80
2017-05-12T16:37:15.800Z,14.22
2017-05-12T16:39:43.874Z,13.98
2017-05-12T16:42:11.069Z,14.56
2017-05-12T16:44:39.633Z,13.20
2017-05-12T16:47:08.038Z,15.32
2017-05-12T16:49:45.454Z,13.48
2017-05-12T16:52:12.679Z,14.28
2017-05-12T16:54:41.552Z,13.20
2017-05-12T16:57:08.757Z,14.70
2017-05-12T16:59:47.385Z,13.94
2017-05-12T17:02:14.590Z,14.94
2017-05-12T17:04:41.906Z,15.08
2017-05-12T17:07:09.092Z,13.68
2017-05-12T17:09:36.335Z,15.22
2017-05-12T17:12:03.542Z,14.66
2017-05-12T17:14:30.765Z,14.70
2017-05-12T17:16:58.035Z,14.54
2017-05-12T17:19:25.283Z,14.88
2017-05-12T17:21:52.525Z,14.00
2017-05-12T17:24:23.210Z,13.80
2017-05-12T17:26:50.394Z,12.86
2017-05-12T17:29:17.687Z,14.12
2017-05-12T17:31:45.927Z,13.82
2017-05-12T17:34:13.164Z,12.90
2017-05-12T17:36:40.995Z,13.22
2017-05-12T17:39:08.224Z,14.14
2017-05-12T17:41:36.419Z,13.70
2017-05-12T17:44:03.602Z,13.86
2017-05-12T17:46:31.421Z,14.52
2017-05-12T17:48:58.618Z,14.66
2017-05-12T17:51:25.817Z,16.26
2017-05-12T17:53:55.042Z,13.80
2017-05-12T17:56:22.274Z,18.44
2017-05-12T17:58:49.551Z,13.62
2017-05-12T18:01:16.819Z,15.06
2017-05-12T18:03:44.014Z,14.46
2017-05-12T18:06:11.882Z,14.54
2017-05-12T18:08:39.093Z,14.40
2017-05-12T18:13:55.940Z,15.50
2017-05-12T18:16:23.995Z,17.46
2017-05-12T18:18:55.974Z,14.74
2017-05-12T18:21:23.178Z,15.04
2017-05-12T18:23:51.663Z,15.68
2017-05-12T18:26:20.614Z,15.76
2017-05-12T18:28:47.972Z,15.56
2017-05-12T18:31:15.219Z,14.40
2017-05-12T18:33:42.430Z,13.60
2017-05-12T18:36:09.640Z,14.54
2017-05-12T18:38:39.497Z,13.14
2017-05-12T18:41:08.086Z,14.64
2017-05-12T18:43:35.295Z,15.12
2017-05-12T18:46:03.394Z,15.10
2017-05-12T18:48:37.433Z,17.50
2017-05-12T18:51:05.580Z,18.94
2017-05-12T18:53:33.583Z,19.16
2017-05-12T18:56:01.827Z,18.64
2017-05-12T18:58:32.561Z,18.18
2017-05-12T19:09:38.320Z,20.34
2017-05-12T19:12:08.296Z,19.78
2017-05-12T19:24:06.302Z,23.46
2017-05-12T19:26:35.036Z,28.24
2017-05-12T19:29:05.267Z,26.82
2017-05-12T19:31:32.490Z,26.32
2017-05-12T19:37:10.943Z,24.76
2017-05-12T19:45:09.825Z,23.20
2017-05-12T19:47:37.855Z,22.18
2017-05-12T19:50:06.304Z,20.36
2017-05-12T19:52:35.986Z,22.20
2017-05-12T19:55:05.382Z,22.64
2017-05-12T19:57:42.934Z,21.72
2017-05-12T20:00:18.358Z,20.02
2017-05-12T20:05:49.219Z,20.40
2017-05-12T20:08:16.426Z,22.08
2017-05-12T20:10:47.126Z,21.60
2017-05-12T20:13:17.863Z,22.84
2017-05-12T20:15:45.135Z,23.50
2017-05-12T20:18:13.145Z,22.56
2017-05-12T20:20:41.323Z,22.54
2017-05-12T20:23:09.357Z,22.68
2017-05-12T20:25:36.560Z,24.04
2017-05-12T20:28:04.831Z,21.70
2017-05-12T20:30:32.679Z,22.76
2017-05-12T20:32:59.970Z,23.24
2017-05-12T20:35:28.870Z,24.66
2017-05-12T20:37:56.875Z,22.52
2017-05-12T20:40:24.051Z,22.54
2017-05-12T20:42:51.317Z,23.46
2017-05-12T20:45:19.606Z,23.08
2017-05-12T20:47:47.026Z,21.90
2017-05-12T20:50:16.437Z,22.70
2017-05-12T20:52:44.609Z,22.60
2017-05-12T20:55:13.902Z,22.24
2017-05-12T20:57:41.200Z,22.36
2017-05-12T21:00:08.815Z,21.64
2017-05-12T21:02:36.887Z,20.94
2017-05-12T21:05:04.901Z,23.08
2017-05-12T21:07:35.417Z,22.30
2017-05-12T21:10:02.597Z,21.78
2017-05-12T21:12:29.798Z,20.52
2017-05-12T21:15:03.920Z,19.84
2017-05-12T21:17:31.167Z,21.34
2017-05-12T21:19:58.393Z,20.82
2017-05-12T21:22:27.531Z,19.64
2017-05-12T21:24:56.320Z,20.84
2017-05-12T21:27:23.559Z,20.18
2017-05-12T21:29:50.738Z,21.14
2017-05-12T21:32:18.008Z,20.26
2017-05-12T21:34:45.195Z,22.64
2017-05-12T21:37:12.397Z,21.22
2017-05-12T21:39:43.328Z,23.08
2017-05-12T21:42:10.557Z,21.86
2017-05-12T21:44:38.642Z,22.86
2017-05-12T21:47:05.842Z,23.44
2017-05-12T21:49:34.836Z,23.00
2017-05-12T21:52:02.919Z,21.24
2017-05-12T21:54:30.914Z,21.06
2017-05-12T21:57:05.295Z,21.06
2017-05-12T21:59:33.140Z,21.42
2017-05-12T22:02:00.327Z,22.24
2017-05-12T22:04:28.134Z,22.30
2017-05-12T22:06:57.015Z,21.80
2017-05-12T22:09:25.331Z,21.16
2017-05-12T22:11:52.594Z,20.46
2017-05-12T22:17:18.457Z,21.10
2017-05-12T22:19:45.681Z,20.52
2017-05-12T22:22:13.483Z,21.42
2017-05-12T22:24:40.708Z,20.72
2017-05-12T22:29:59.103Z,20.62
2017-05-12T22:32:26.315Z,19.88
2017-05-12T22:34:53.523Z,20.24
2017-05-12T22:37:20.734Z,19.60
2017-05-12T22:39:47.914Z,20.60
2017-05-12T22:42:15.134Z,20.16
2017-05-12T22:44:43.216Z,21.18
2017-05-12T22:47:10.436Z,20.12
2017-05-12T22:49:37.659Z,20.22
2017-05-12T22:52:04.832Z,20.62
2017-05-12T22:54:32.018Z,20.36
2017-05-12T22:56:59.297Z,19.40
2017-05-12T22:59:26.493Z,18.74
2017-05-12T23:01:57.552Z,18.92
2017-05-12T23:04:24.785Z,19.30
2017-05-12T23:06:51.986Z,20.30
2017-05-12T23:09:19.186Z,19.24
2017-05-12T23:11:46.405Z,18.92
2017-05-12T23:14:13.589Z,17.92
2017-05-12T23:16:40.786Z,19.22
2017-05-12T23:19:08.096Z,18.84
2017-05-12T23:21:35.285Z,19.58
2017-05-12T23:24:07.574Z,17.52
2017-05-12T23:26:34.760Z,18.84
2017-05-12T23:29:02.943Z,17.18
2017-05-12T23:31:30.154Z,17.42
2017-05-12T23:33:57.351Z,17.14
2017-05-12T23:36:24.610Z,17.34
2017-05-12T23:38:52.423Z,17.68
2017-05-12T23:41:20.671Z,16.26
2017-05-12T23:43:47.894Z,16.12
2017-05-12T23:46:15.586Z,16.78
2017-05-12T23:48:43.759Z,19.28
2017-05-12T23:51:10.980Z,17.86
2017-05-12T23:53:38.155Z,17.28
2017-05-12T23:56:07.270Z,16.32
2017-05-12T23:58:35.690Z,18.10
